createdAt,value
2017-12-03T00:01:01.934Z,80.40
2017-12-03T00:03:29.389Z,80.40
2017-12-03T00:05:56.856Z,80.30
2017-12-03T00:08:24.345Z,80.20
2017-12-03T00:10:51.801Z,80.20
2017-12-03T00:13:19.249Z,80.20
2017-12-03T00:15:46.704Z,80.20
2017-12-03T00:18:14.156Z,80.30
2017-12-03T00:20:42.085Z,80.20
2017-12-03T00:23:10.457Z,80.20
2017-12-03T00:25:37.909Z,80.20
2017-12-03T00:28:05.378Z,80.20
2017-12-03T00:30:32.817Z,80.10
2017-12-03T00:33:00.284Z,80.10
2017-12-03T00:35:27.763Z,80.20
2017-12-03T00:37:55.209Z,80.10
2017-12-03T00:40:22.665Z,80.10
2017-12-03T00:42:50.114Z,80.20
2017-12-03T00:45:17.587Z,80.20
2017-12-03T00:47:45.037Z,80.20
2017-12-03T00:50:12.489Z,80.20
2017-12-03T00:52:40.075Z,80.20
2017-12-03T00:55:07.520Z,80.10
2017-12-03T00:57:34.994Z,80.10
2017-12-03T01:00:02.457Z,80.10
2017-12-03T01:02:29.940Z,80.10
2017-12-03T01:04:57.395Z,80.20
2017-12-03T01:07:24.904Z,80.20
2017-12-03T01:09:52.318Z,80.20
2017-12-03T01:12:19.778Z,80.20
2017-12-03T01:14:47.247Z,80.20
2017-12-03T01:17:14.699Z,80.20
2017-12-03T01:19:42.180Z,80.10
2017-12-03T01:22:09.623Z,80.20
2017-12-03T01:24:37.073Z,80.20
2017-12-03T01:27:04.533Z,80.20
2017-12-03T01:29:31.997Z,80.20
2017-12-03T01:31:59.454Z,80.10
2017-12-03T01:34:27.676Z,80.20
2017-12-03T01:36:55.162Z,80.00
2017-12-03T01:39:22.615Z,80.10
2017-12-03T01:41:50.071Z,80.00
2017-12-03T01:44:17.535Z,80.00
2017-12-03T01:46:44.991Z,80.00
2017-12-03T01:49:12.455Z,80.00
2017-12-03T01:51:39.904Z,80.00
2017-12-03T01:54:07.386Z,80.00
2017-12-03T01:56:34.833Z,80.20
2017-12-03T01:59:02.297Z,80.10
2017-12-03T02:01:29.761Z,80.20
2017-12-03T02:03:57.219Z,80.00
2017-12-03T02:06:24.700Z,80.70
2017-12-03T02:08:52.156Z,79.90
2017-12-03T02:11:19.622Z,79.70
2017-12-03T02:13:47.088Z,79.80
2017-12-03T02:16:14.561Z,79.90
2017-12-03T02:18:42.011Z,80.00
2017-12-03T02:21:09.475Z,80.00
2017-12-03T02:23:36.957Z,80.00
2017-12-03T02:26:04.416Z,80.00
2017-12-03T02:28:31.864Z,80.80
2017-12-03T02:30:59.327Z,80.00
2017-12-03T02:33:26.783Z,80.00
2017-12-03T02:35:54.263Z,80.00
2017-12-03T02:38:21.719Z,80.00
2017-12-03T02:40:49.187Z,80.00
2017-12-03T02:43:16.645Z,80.00
2017-12-03T02:45:44.105Z,80.80
2017-12-03T02:48:11.582Z,80.10
2017-12-03T02:50:39.043Z,80.00
2017-12-03T02:53:06.507Z,80.10
2017-12-03T02:55:34.731Z,80.00
2017-12-03T02:58:02.245Z,80.00
2017-12-03T03:00:29.694Z,80.00
2017-12-03T03:02:57.151Z,80.80
2017-12-03T03:05:24.606Z,80.00
2017-12-03T03:07:52.048Z,80.00
2017-12-03T03:10:20.266Z,80.00
2017-12-03T03:12:47.710Z,80.00
2017-12-03T03:15:15.149Z,80.00
2017-12-03T03:17:42.613Z,80.00
2017-12-03T03:20:10.056Z,80.00
2017-12-03T03:22:37.528Z,80.00
2017-12-03T03:25:04.981Z,80.00
2017-12-03T03:27:32.426Z,80.00
2017-12-03T03:30:00.642Z,80.00
2017-12-03T03:32:28.091Z,80.00
2017-12-03T03:34:55.664Z,79.90
2017-12-03T03:37:23.097Z,80.00
2017-12-03T03:39:51.305Z,80.00
2017-12-03T03:42:18.779Z,80.00
2017-12-03T03:44:46.244Z,80.00
2017-12-03T03:47:13.697Z,80.00
2017-12-03T03:49:41.156Z,80.00
2017-12-03T03:52:08.626Z,80.00
2017-12-03T03:54:36.061Z,80.00
2017-12-03T03:57:03.504Z,80.00
2017-12-03T03:59:31.746Z,80.00
2017-12-03T04:01:59.207Z,80.00
2017-12-03T04:04:26.681Z,80.00
2017-12-03T04:06:54.134Z,80.00
2017-12-03T04:09:21.577Z,80.00
2017-12-03T04:11:49.035Z,80.00
2017-12-03T04:14:16.498Z,80.10
2017-12-03T04:16:43.967Z,80.00
2017-12-03T04:19:11.420Z,80.00
2017-12-03T04:21:38.866Z,80.00
2017-12-03T04:24:06.357Z,80.00
2017-12-03T04:26:33.799Z,80.00
2017-12-03T04:29:01.296Z,80.00
2017-12-03T04:31:28.751Z,79.90
2017-12-03T04:33:56.207Z,80.60
2017-12-03T04:36:23.680Z,79.90
2017-12-03T04:38:51.123Z,79.90
2017-12-03T04:41:18.597Z,79.90
2017-12-03T04:43:46.056Z,79.90
2017-12-03T04:46:13.501Z,79.90
2017-12-03T04:48:40.949Z,79.90
2017-12-03T04:51:08.391Z,79.90
2017-12-03T04:53:36.634Z,80.00
2017-12-03T04:56:04.092Z,79.90
2017-12-03T04:58:31.525Z,79.90
2017-12-03T05:00:58.973Z,79.90
2017-12-03T05:03:26.412Z,79.90
2017-12-03T05:05:54.640Z,79.90
2017-12-03T05:08:22.099Z,79.90
2017-12-03T05:10:49.571Z,79.90
2017-12-03T05:13:17.024Z,79.90
2017-12-03T05:15:44.471Z,79.90
2017-12-03T05:18:11.949Z,79.80
2017-12-03T05:20:39.411Z,79.80
2017-12-03T05:23:06.867Z,79.80
2017-12-03T05:25:34.337Z,79.70
2017-12-03T05:28:01.792Z,79.80
2017-12-03T05:30:29.275Z,79.70
2017-12-03T05:32:56.727Z,79.80
2017-12-03T05:35:24.187Z,79.80
2017-12-03T05:37:51.657Z,79.80
2017-12-03T05:40:19.120Z,79.80
2017-12-03T05:42:46.593Z,79.80
2017-12-03T05:45:14.037Z,79.80
2017-12-03T05:47:41.491Z,79.80
2017-12-03T05:50:08.963Z,79.80
2017-12-03T05:52:36.401Z,79.80
2017-12-03T05:55:03.873Z,79.80
2017-12-03T05:57:31.337Z,79.90
2017-12-03T05:59:58.813Z,79.90
2017-12-03T06:02:26.291Z,79.90
2017-12-03T06:04:53.769Z,79.90
2017-12-03T06:07:21.249Z,79.90
2017-12-03T06:09:48.716Z,79.90
2017-12-03T06:12:16.175Z,80.60
2017-12-03T06:14:43.651Z,79.90
2017-12-03T06:17:11.883Z,79.90
2017-12-03T06:19:39.354Z,79.90
2017-12-03T06:22:06.818Z,79.90
2017-12-03T06:24:35.072Z,80.00
2017-12-03T06:27:02.535Z,79.90
2017-12-03T06:29:29.983Z,80.00
2017-12-03T06:31:57.466Z,80.00
2017-12-03T06:34:24.914Z,79.80
2017-12-03T06:36:52.365Z,79.90
2017-12-03T06:39:19.817Z,80.00
2017-12-03T06:41:48.050Z,80.00
2017-12-03T06:44:15.563Z,80.00
2017-12-03T06:46:43.787Z,80.10
2017-12-03T06:49:11.251Z,80.00
2017-12-03T06:51:38.695Z,80.10
2017-12-03T06:54:06.164Z,80.10
2017-12-03T06:56:33.615Z,80.20
2017-12-03T06:59:01.087Z,80.20
2017-12-03T07:01:28.551Z,80.20
2017-12-03T07:03:56.022Z,80.30
2017-12-03T07:06:23.468Z,80.30
2017-12-03T07:08:50.932Z,80.30
2017-12-03T07:11:18.393Z,80.30
2017-12-03T07:13:45.895Z,80.30
2017-12-03T07:16:13.356Z,80.30
2017-12-03T07:18:40.826Z,80.30
2017-12-03T07:21:08.312Z,80.20
2017-12-03T07:23:36.567Z,80.30
2017-12-03T07:26:04.090Z,80.30
2017-12-03T07:28:31.552Z,80.40
2017-12-03T07:30:59.014Z,80.30
2017-12-03T07:33:26.580Z,80.30
2017-12-03T07:35:54.052Z,80.30
2017-12-03T07:38:21.512Z,80.20
2017-12-03T07:40:49.055Z,80.30
2017-12-03T07:43:17.315Z,80.40
2017-12-03T07:45:45.560Z,80.40
2017-12-03T07:48:13.098Z,80.40
2017-12-03T07:50:40.568Z,80.30
2017-12-03T07:53:08.020Z,80.30
2017-12-03T07:55:35.495Z,80.30
2017-12-03T07:58:02.988Z,81.00
2017-12-03T08:00:30.462Z,80.30
2017-12-03T08:02:58.713Z,80.50
2017-12-03T08:05:26.935Z,80.40
2017-12-03T08:07:55.163Z,80.40
2017-12-03T08:10:22.621Z,80.40
2017-12-03T08:12:50.075Z,80.40
2017-12-03T08:15:17.546Z,80.40
2017-12-03T08:17:44.999Z,80.30
2017-12-03T08:20:12.488Z,80.40
2017-12-03T08:22:39.969Z,80.40
2017-12-03T08:25:11.700Z,80.50
2017-12-03T08:27:45.133Z,80.50
2017-12-03T08:30:12.614Z,80.50
2017-12-03T08:32:40.862Z,80.50
2017-12-03T08:35:08.331Z,80.50
2017-12-03T08:37:35.783Z,80.60
2017-12-03T08:40:03.271Z,80.60
2017-12-03T08:42:33.914Z,80.70
2017-12-03T08:48:23.778Z,80.80
2017-12-03T08:56:55.284Z,81.00
2017-12-03T08:59:34.092Z,81.00
2017-12-03T09:05:07.387Z,81.00
2017-12-03T09:07:37.166Z,81.10
2017-12-03T09:10:06.294Z,81.10
2017-12-03T09:12:39.334Z,81.10
2017-12-03T09:15:14.684Z,81.10
2017-12-03T09:20:19.713Z,81.10
2017-12-03T09:22:47.797Z,81.10
2017-12-03T09:25:22.179Z,81.20
2017-12-03T09:27:51.859Z,81.20
2017-12-03T09:30:21.860Z,81.20
2017-12-03T09:32:55.572Z,81.20
2017-12-03T09:35:33.416Z,81.30
2017-12-03T09:38:08.311Z,81.40
2017-12-03T09:40:39.512Z,81.40
2017-12-03T09:43:10.395Z,81.50
2017-12-03T09:45:45.215Z,81.50
2017-12-03T09:54:06.679Z,81.50
2017-12-03T09:56:37.677Z,81.60
2017-12-03T09:59:16.769Z,81.60
2017-12-03T10:01:46.708Z,81.60
2017-12-03T10:04:22.378Z,81.60
2017-12-03T10:06:50.172Z,81.60
2017-12-03T10:09:40.746Z,81.60
2017-12-03T10:12:24.305Z,81.60
2017-12-03T10:14:57.031Z,81.60
2017-12-03T10:17:44.084Z,81.60
2017-12-03T10:20:13.573Z,81.70
2017-12-03T10:22:50.784Z,81.70
2017-12-03T10:31:12.662Z,81.80
2017-12-03T10:33:47.460Z,81.80
2017-12-03T10:36:15.063Z,81.60
2017-12-03T10:48:04.085Z,81.80
2017-12-03T10:50:31.536Z,81.80
2017-12-03T10:52:59.016Z,81.90
2017-12-03T10:55:26.478Z,82.50
2017-12-03T10:57:55.227Z,81.80
2017-12-03T11:00:36.832Z,82.00
2017-12-03T11:03:04.286Z,81.90
2017-12-03T11:08:34.815Z,82.00
2017-12-03T11:11:02.288Z,82.00
2017-12-03T11:13:39.894Z,82.00
2017-12-03T11:16:07.329Z,82.00
2017-12-03T11:18:34.779Z,82.00
2017-12-03T11:21:02.222Z,82.10
2017-12-03T11:23:30.432Z,82.20
2017-12-03T11:25:57.898Z,82.10
2017-12-03T11:28:25.352Z,82.20
2017-12-03T11:30:52.777Z,82.20
2017-12-03T11:33:20.265Z,82.20
2017-12-03T11:35:47.699Z,82.20
2017-12-03T11:38:15.145Z,82.30
2017-12-03T11:40:42.585Z,82.30
2017-12-03T11:43:10.806Z,82.40
2017-12-03T11:45:38.267Z,82.40
2017-12-03T11:48:05.710Z,82.40
2017-12-03T11:50:33.170Z,82.40
2017-12-03T11:53:00.615Z,82.40
2017-12-03T11:55:28.087Z,82.40
2017-12-03T11:57:55.517Z,82.40
2017-12-03T12:00:23.035Z,82.40
2017-12-03T12:02:50.482Z,82.40
2017-12-03T12:05:17.932Z,82.50
2017-12-03T12:07:45.387Z,82.50
2017-12-03T12:10:12.858Z,82.50
2017-12-03T12:12:40.335Z,82.50
2017-12-03T12:15:07.774Z,82.50
2017-12-03T12:17:36.042Z,82.60
2017-12-03T12:20:03.481Z,82.60
2017-12-03T12:22:30.933Z,82.60
2017-12-03T12:24:58.394Z,82.70
2017-12-03T12:27:25.838Z,82.70
2017-12-03T12:29:53.303Z,82.70
2017-12-03T12:32:20.734Z,82.80
2017-12-03T12:34:48.165Z,82.60
2017-12-03T12:37:15.644Z,82.70
2017-12-03T12:39:43.061Z,82.80
2017-12-03T12:42:11.260Z,83.50
2017-12-03T12:44:38.695Z,82.80
2017-12-03T12:47:06.910Z,82.90
2017-12-03T12:49:34.340Z,82.90
2017-12-03T12:52:01.791Z,82.90
2017-12-03T12:54:29.237Z,82.90
2017-12-03T12:56:57.452Z,82.90
2017-12-03T12:59:25.016Z,82.80
2017-12-03T13:01:52.432Z,82.90
2017-12-03T13:04:20.662Z,82.80
2017-12-03T13:06:48.118Z,82.80
2017-12-03T13:09:15.566Z,82.80
2017-12-03T13:11:43.026Z,82.80
2017-12-03T13:14:10.482Z,82.90
2017-12-03T13:16:37.936Z,82.90
2017-12-03T13:19:05.388Z,82.90
2017-12-03T13:21:32.850Z,83.00
2017-12-03T13:24:00.295Z,82.90
2017-12-03T13:26:27.763Z,82.90
2017-12-03T13:28:55.232Z,82.90
2017-12-03T13:31:22.683Z,82.90
2017-12-03T13:33:50.141Z,82.90
2017-12-03T13:36:17.607Z,82.90
2017-12-03T13:38:45.065Z,82.90
2017-12-03T13:41:12.515Z,83.00
2017-12-03T13:43:39.979Z,83.00
2017-12-03T13:46:07.428Z,83.00
2017-12-03T13:48:34.877Z,83.00
2017-12-03T13:51:02.339Z,83.00
2017-12-03T13:53:29.782Z,83.00
2017-12-03T13:55:57.278Z,83.00
2017-12-03T13:58:24.708Z,83.00
2017-12-03T14:00:52.150Z,83.00
2017-12-03T14:03:19.616Z,83.00
2017-12-03T14:05:47.053Z,83.00
2017-12-03T14:08:14.497Z,83.00
2017-12-03T14:10:41.926Z,83.10
2017-12-03T14:13:09.382Z,83.00
2017-12-03T14:15:36.832Z,83.10
2017-12-03T14:18:04.282Z,83.10
2017-12-03T14:20:31.729Z,83.10
2017-12-03T14:22:59.181Z,83.20
2017-12-03T14:25:26.647Z,83.20
2017-12-03T14:27:54.098Z,83.20
2017-12-03T14:30:21.629Z,83.20
2017-12-03T14:32:49.074Z,83.20
2017-12-03T14:35:16.512Z,83.20
2017-12-03T14:37:43.972Z,83.30
2017-12-03T14:40:11.416Z,83.30
2017-12-03T14:42:38.869Z,82.80
2017-12-03T14:45:06.318Z,83.30
2017-12-03T14:47:33.788Z,83.30
2017-12-03T14:50:01.229Z,83.30
2017-12-03T14:52:28.687Z,83.30
2017-12-03T14:54:56.142Z,83.30
2017-12-03T14:57:23.602Z,83.30
2017-12-03T14:59:51.054Z,83.30
2017-12-03T15:02:18.516Z,83.30
2017-12-03T15:04:46.754Z,83.30
2017-12-03T15:07:14.210Z,83.30
2017-12-03T15:09:41.645Z,83.30
2017-12-03T15:12:09.875Z,83.40
2017-12-03T15:14:37.317Z,83.40
2017-12-03T15:17:04.772Z,83.40
2017-12-03T15:19:32.223Z,83.40
2017-12-03T15:21:59.666Z,83.50
2017-12-03T15:24:27.127Z,83.40
2017-12-03T15:26:54.571Z,83.60
2017-12-03T15:29:22.023Z,83.50
2017-12-03T15:31:50.235Z,83.60
2017-12-03T15:34:17.727Z,83.50
2017-12-03T15:36:45.140Z,83.60
2017-12-03T15:39:12.586Z,83.50
2017-12-03T15:41:40.385Z,83.60
2017-12-03T15:44:07.830Z,83.60
2017-12-03T15:46:35.282Z,83.50
2017-12-03T15:49:02.740Z,83.60
2017-12-03T15:51:30.202Z,83.60
2017-12-03T15:53:57.657Z,83.50
2017-12-03T15:56:25.107Z,83.50
2017-12-03T15:58:52.557Z,83.50
2017-12-03T16:01:19.997Z,83.60
2017-12-03T16:03:47.437Z,83.60
2017-12-03T16:06:15.671Z,83.60
2017-12-03T16:08:43.118Z,83.60
2017-12-03T16:11:10.577Z,83.70
2017-12-03T16:13:38.024Z,83.60
2017-12-03T16:16:05.467Z,83.70
2017-12-03T16:18:32.903Z,83.70
2017-12-03T16:21:01.119Z,83.60
2017-12-03T16:23:28.587Z,83.60
2017-12-03T16:25:56.033Z,83.70
2017-12-03T16:28:23.592Z,83.80
2017-12-03T16:30:51.024Z,83.80
2017-12-03T16:33:18.465Z,83.70
2017-12-03T16:35:46.681Z,83.90
2017-12-03T16:38:14.180Z,83.90
2017-12-03T16:40:42.334Z,84.20
2017-12-03T16:43:09.791Z,83.90
2017-12-03T16:45:38.005Z,83.90
2017-12-03T16:48:06.223Z,83.90
2017-12-03T16:50:33.668Z,83.90
2017-12-03T16:53:01.136Z,83.90
2017-12-03T16:55:28.579Z,83.90
2017-12-03T16:57:56.027Z,83.90
2017-12-03T17:00:24.234Z,83.90
2017-12-03T17:02:51.672Z,83.90
2017-12-03T17:05:19.133Z,83.90
2017-12-03T17:07:46.556Z,83.90
2017-12-03T17:10:14.779Z,83.90
2017-12-03T17:12:42.222Z,83.90
2017-12-03T17:15:09.670Z,83.90
2017-12-03T17:17:37.134Z,83.90
2017-12-03T17:20:04.592Z,83.90
2017-12-03T17:22:32.030Z,83.90
2017-12-03T17:24:59.473Z,83.90
2017-12-03T17:27:27.709Z,84.10
2017-12-03T17:29:55.165Z,83.90
2017-12-03T17:32:22.602Z,84.10
2017-12-03T17:34:50.160Z,84.10
2017-12-03T17:37:17.616Z,84.10
2017-12-03T17:39:45.796Z,84.70
2017-12-03T17:42:13.250Z,84.10
2017-12-03T17:44:40.719Z,84.10
2017-12-03T17:47:08.163Z,84.10
2017-12-03T17:49:35.618Z,84.10
2017-12-03T17:52:03.085Z,84.10
2017-12-03T17:54:30.516Z,84.10
2017-12-03T17:56:57.958Z,84.10
2017-12-03T17:59:25.414Z,84.10
2017-12-03T18:01:52.848Z,84.10
2017-12-03T18:04:21.083Z,84.20
2017-12-03T18:06:48.521Z,84.20
2017-12-03T18:09:15.971Z,84.20
2017-12-03T18:11:43.421Z,84.20
2017-12-03T18:14:10.871Z,84.20
2017-12-03T18:16:39.089Z,84.20
2017-12-03T18:19:06.643Z,84.20
2017-12-03T18:21:34.101Z,84.20
2017-12-03T18:24:01.549Z,84.20
2017-12-03T18:26:28.990Z,84.20
2017-12-03T18:28:56.476Z,84.20
2017-12-03T18:31:23.916Z,84.20
2017-12-03T18:33:51.384Z,84.20
2017-12-03T18:36:18.830Z,84.20
2017-12-03T18:38:46.350Z,84.30
2017-12-03T18:41:13.757Z,84.30
2017-12-03T18:43:41.255Z,84.30
2017-12-03T18:46:08.706Z,84.30
2017-12-03T18:48:36.146Z,85.00
2017-12-03T18:51:03.610Z,84.40
2017-12-03T18:53:31.063Z,84.40
2017-12-03T18:55:59.269Z,84.40
2017-12-03T18:58:27.538Z,84.40
2017-12-03T19:00:54.976Z,84.40
2017-12-03T19:03:22.434Z,84.40
2017-12-03T19:05:49.887Z,84.40
2017-12-03T19:08:17.346Z,84.20
2017-12-03T19:10:44.795Z,84.30
2017-12-03T19:13:12.269Z,84.40
2017-12-03T19:15:39.718Z,84.40
2017-12-03T19:18:07.171Z,84.50
2017-12-03T19:20:34.631Z,84.50
2017-12-03T19:23:02.099Z,84.50
2017-12-03T19:25:29.558Z,84.50
2017-12-03T19:27:57.003Z,84.50
2017-12-03T19:30:24.458Z,84.50
2017-12-03T19:32:51.894Z,84.50
2017-12-03T19:35:19.347Z,84.50
2017-12-03T19:37:46.804Z,84.50
2017-12-03T19:40:14.228Z,84.40
2017-12-03T19:42:42.477Z,84.50
2017-12-03T19:45:09.927Z,84.50
2017-12-03T19:47:37.406Z,84.50
2017-12-03T19:50:05.636Z,84.50
2017-12-03T19:52:33.084Z,84.50
2017-12-03T19:55:00.542Z,84.50
2017-12-03T19:57:27.983Z,84.60
2017-12-03T19:59:55.434Z,84.60
2017-12-03T20:02:22.877Z,84.60
2017-12-03T20:04:51.103Z,84.60
2017-12-03T20:07:18.562Z,84.50
2017-12-03T20:09:46.762Z,84.70
2017-12-03T20:12:14.217Z,84.70
2017-12-03T20:14:41.659Z,84.70
2017-12-03T20:17:09.100Z,84.70
2017-12-03T20:19:36.554Z,84.70
2017-12-03T20:22:04.014Z,84.70
2017-12-03T20:24:31.444Z,84.70
2017-12-03T20:26:58.891Z,85.40
2017-12-03T20:29:27.098Z,84.70
2017-12-03T20:31:54.554Z,84.70
2017-12-03T20:34:22.012Z,84.70
2017-12-03T20:36:49.469Z,84.70
2017-12-03T20:39:16.926Z,84.70
2017-12-03T20:41:44.379Z,84.70
2017-12-03T20:44:11.864Z,84.70
2017-12-03T20:46:39.306Z,84.70
2017-12-03T20:49:06.759Z,84.80
2017-12-03T20:51:34.192Z,84.70
2017-12-03T20:54:01.638Z,84.80
2017-12-03T20:56:29.852Z,84.80
2017-12-03T20:58:57.302Z,84.80
2017-12-03T21:01:24.746Z,84.90
2017-12-03T21:03:52.216Z,84.90
2017-12-03T21:06:19.675Z,84.90
2017-12-03T21:08:47.112Z,85.00
2017-12-03T21:11:14.551Z,84.90
2017-12-03T21:13:42.783Z,85.00
2017-12-03T21:16:10.220Z,84.90
2017-12-03T21:18:37.647Z,85.10
2017-12-03T21:21:05.102Z,85.00
2017-12-03T21:23:32.545Z,85.80
2017-12-03T21:26:00.760Z,85.10
2017-12-03T21:28:28.247Z,85.80
2017-12-03T21:30:55.722Z,85.10
2017-12-03T21:33:23.159Z,85.10
2017-12-03T21:35:58.170Z,85.10
2017-12-03T21:38:31.213Z,85.10
2017-12-03T21:40:59.384Z,85.10
2017-12-03T21:43:32.344Z,85.10
2017-12-03T21:46:00.216Z,85.10
2017-12-03T21:48:28.175Z,85.10
2017-12-03T21:50:55.914Z,85.10
2017-12-03T21:53:24.635Z,85.10
2017-12-03T21:55:52.098Z,85.10
2017-12-03T21:58:19.541Z,85.20
2017-12-03T22:00:46.999Z,85.20
2017-12-03T22:03:14.434Z,85.10
2017-12-03T22:05:41.871Z,85.20
2017-12-03T22:08:09.505Z,85.90
2017-12-03T22:10:37.109Z,85.20
2017-12-03T22:13:04.769Z,85.20
2017-12-03T22:15:33.092Z,85.20
2017-12-03T22:18:00.598Z,85.20
2017-12-03T22:20:28.188Z,85.20
2017-12-03T22:22:55.679Z,85.30
2017-12-03T22:25:23.262Z,85.30
2017-12-03T22:27:51.495Z,85.30
2017-12-03T22:30:19.134Z,85.30
2017-12-03T22:35:20.845Z,85.40
2017-12-03T22:37:49.469Z,85.40
2017-12-03T22:40:17.983Z,85.40
2017-12-03T22:42:45.550Z,85.40
2017-12-03T22:48:04.066Z,85.40
2017-12-03T22:50:36.568Z,85.40
2017-12-03T22:53:05.785Z,85.40
2017-12-03T22:55:35.104Z,85.40
2017-12-03T22:58:11.066Z,85.40
2017-12-03T23:00:39.214Z,85.50
2017-12-03T23:08:58.067Z,85.50
2017-12-03T23:11:29.273Z,85.60
2017-12-03T23:14:02.655Z,85.60
2017-12-03T23:16:34.437Z,85.60
2017-12-03T23:19:03.726Z,85.60
2017-12-03T23:21:38.735Z,85.60
2017-12-03T23:24:06.302Z,85.60
2017-12-03T23:26:39.528Z,85.60
2017-12-03T23:29:08.391Z,85.60
2017-12-03T23:31:35.904Z,86.40
2017-12-03T23:34:15.716Z,85.60
2017-12-03T23:37:06.541Z,85.60
2017-12-03T23:39:34.982Z,85.60
2017-12-03T23:42:02.562Z,85.70
2017-12-03T23:44:42.930Z,85.60
2017-12-03T23:47:15.071Z,85.70
2017-12-03T23:49:43.479Z,85.60
2017-12-03T23:52:11.914Z,85.70
2017-12-03T23:54:41.116Z,85.70
2017-12-03T23:57:08.819Z,85.70
2017-12-03T23:59:36.412Z,85.70
